Time;durP1;ratioP1;P1;durP2;ratioP2;P2;SDS_P1;SDS_P2;PMS_P1;PMS_P2;Temp;Humidity;BMP_temperature;BMP_pressure;BME280_temperature;BME280_humidity;BME280_pressure;Samples;Min_cycle;Max_cycle;Signal;HPM_P1;HPM_P2
2021/10/12 06:33:01;;;;;;;13.10;7.18;;;;;;;;;;7351834;19;20025;-63
2021/10/12 06:35:29;;;;;;;9.52;6.63;;;;;;;;;;7397818;19;20018;-60
2021/10/12 06:37:58;;;;;;;12.52;7.47;;;;;;;;;;7401371;19;20006;-60
2021/10/12 06:40:26;;;;;;;12.77;6.80;;;;;;;;;;7401239;19;20512;-60
2021/10/12 06:42:54;;;;;;;12.38;7.18;;;;;;;;;;7396413;19;20545;-60
2021/10/12 06:45:22;;;;;;;12.52;6.93;;;;;;;;;;7399525;19;20485;-59
2021/10/12 06:47:50;;;;;;;11.65;6.47;;;;;;;;;;7394734;19;20010;-60
2021/10/12 06:50:19;;;;;;;12.00;6.88;;;;;;;;;;7396460;19;20011;-61
2021/10/12 06:52:47;;;;;;;118.43;71.25;;;;;;;;;;7400974;19;20023;-60
2021/10/12 06:55:15;;;;;;;17.48;10.15;;;;;;;;;;7394784;19;20017;-56
2021/10/12 06:57:44;;;;;;;11.45;7.35;;;;;;;;;;7396334;19;20007;-55
2021/10/12 07:00:13;;;;;;;9.25;6.78;;;;;;;;;;7396916;19;20011;-58
2021/10/12 07:02:42;;;;;;;12.30;6.30;;;;;;;;;;7394646;19;20013;-51
2021/10/12 07:05:11;;;;;;;9.57;6.05;;;;;;;;;;7394845;19;20018;-61
2021/10/12 07:07:39;;;;;;;11.00;6.65;;;;;;;;;;7395003;19;20011;-58
2021/10/12 07:10:08;;;;;;;9.35;5.57;;;;;;;;;;7394876;19;20098;-58
2021/10/12 07:12:36;;;;;;;10.75;6.68;;;;;;;;;;7394907;19;20022;-59
2021/10/12 07:15:05;;;;;;;11.48;6.72;;;;;;;;;;7393164;19;20049;-57
2021/10/12 07:17:33;;;;;;;8.20;5.43;;;;;;;;;;7394925;19;20010;-61
2021/10/12 07:20:01;;;;;;;10.48;6.43;;;;;;;;;;7394557;19;20082;-61
2021/10/12 07:22:28;;;;;;;9.10;5.75;;;;;;;;;;7394591;19;20010;-62
2021/10/12 07:24:55;;;;;;;8.95;5.60;;;;;;;;;;7395059;19;20011;-62
2021/10/12 07:27:23;;;;;;;9.73;5.78;;;;;;;;;;7394706;19;20331;-59
2021/10/12 07:29:57;;;;;;;11.95;6.18;;;;;;;;;;7393317;19;20011;-59
2021/10/12 07:32:25;;;;;;;8.05;5.55;;;;;;;;;;7393891;19;20477;-62
2021/10/12 07:34:52;;;;;;;35.72;19.67;;;;;;;;;;7393261;19;20014;-60
2021/10/12 07:37:19;;;;;;;10.52;6.65;;;;;;;;;;7390233;19;20010;-58
2021/10/12 07:39:47;;;;;;;21.88;7.95;;;;;;;;;;7393638;19;20014;-58
2021/10/12 07:42:14;;;;;;;8.45;6.57;;;;;;;;;;7396859;19;20027;-60
2021/10/12 07:44:41;;;;;;;15.52;6.20;;;;;;;;;;7393650;19;20508;-59
2021/10/12 07:47:09;;;;;;;9.45;5.82;;;;;;;;;;7393297;19;20015;-60
2021/10/12 07:49:37;;;;;;;11.20;5.60;;;;;;;;;;7394313;19;20011;-59
2021/10/12 07:52:09;;;;;;;12.77;5.50;;;;;;;;;;7393637;19;20029;-60
2021/10/12 07:54:43;;;;;;;11.25;4.70;;;;;;;;;;7392571;19;20015;-60
2021/10/12 07:57:12;;;;;;;8.70;4.93;;;;;;;;;;7393181;19;20006;-58
2021/10/12 07:59:39;;;;;;;8.43;4.63;;;;;;;;;;7393673;19;20022;-59
2021/10/12 08:02:11;;;;;;;9.07;4.63;;;;;;;;;;7392159;19;20007;-58
2021/10/12 08:04:40;;;;;;;5.95;4.20;;;;;;;;;;7393081;19;20006;-57
2021/10/12 08:07:08;;;;;;;7.53;4.82;;;;;;;;;;7393419;19;20021;-60
2021/10/12 08:09:36;;;;;;;9.73;4.32;;;;;;;;;;7393088;19;20085;-60
2021/10/12 08:12:05;;;;;;;7.15;3.55;;;;;;;;;;7393119;19;20010;-61
2021/10/12 08:14:38;;;;;;;7.82;4.22;;;;;;;;;;7392594;19;20105;-61
2021/10/12 08:17:05;;;;;;;9.35;4.32;;;;;;;;;;7392938;19;20364;-62
2021/10/12 08:19:33;;;;;;;7.13;3.67;;;;;;;;;;7392718;19;20479;-60
2021/10/12 08:22:02;;;;;;;7.20;4.18;;;;;;;;;;7392646;19;20036;-55
2021/10/12 08:24:30;;;;;;;9.30;4.13;;;;;;;;;;7392954;19;20038;-59
2021/10/12 08:26:57;;;;;;;6.38;3.63;;;;;;;;;;7392419;19;20034;-60
2021/10/12 08:29:27;;;;;;;7.70;3.90;;;;;;;;;;7392345;19;20013;-59
2021/10/12 08:31:54;;;;;;;7.53;4.03;;;;;;;;;;7393073;19;20018;-64
2021/10/12 08:34:22;;;;;;;5.75;3.70;;;;;;;;;;7390158;19;20018;-60
2021/10/12 08:36:49;;;;;;;5.00;3.70;;;;;;;;;;7391989;19;20100;-59
2021/10/12 08:39:18;;;;;;;20.05;10.00;;;;;;;;;;7393862;19;20826;-67
2021/10/12 08:41:58;;;;;;;11.05;6.05;;;;;;;;;;7392144;19;20010;-61
2021/10/12 08:44:25;;;;;;;9.57;4.47;;;;;;;;;;7391255;19;20035;-62
2021/10/12 08:46:54;;;;;;;7.15;3.65;;;;;;;;;;7392253;19;20041;-58
2021/10/12 08:49:21;;;;;;;8.07;3.80;;;;;;;;;;7389692;19;20031;-60
2021/10/12 08:51:48;;;;;;;9.23;4.30;;;;;;;;;;7391958;19;20018;-60
2021/10/12 08:54:17;;;;;;;7.00;3.08;;;;;;;;;;7392520;19;20010;-59
2021/10/12 08:56:45;;;;;;;8.90;3.88;;;;;;;;;;7391479;19;20417;-61
2021/10/12 08:59:12;;;;;;;8.15;4.00;;;;;;;;;;7391196;19;20477;-61
2021/10/12 09:01:58;;;;;;;7.15;3.75;;;;;;;;;;7391184;19;20015;-59
2021/10/12 09:04:39;;;;;;;7.97;3.97;;;;;;;;;;7391633;19;20014;-59
2021/10/12 09:07:21;;;;;;;5.32;3.30;;;;;;;;;;7390956;19;20014;-63
2021/10/12 09:09:49;;;;;;;21.88;11.00;;;;;;;;;;7391312;19;20015;-60
2021/10/12 09:12:17;;;;;;;7.68;3.45;;;;;;;;;;7391165;19;20007;-59
2021/10/12 09:14:56;;;;;;;8.27;3.47;;;;;;;;;;7390096;19;20010;-60
2021/10/12 09:17:35;;;;;;;6.10;3.38;;;;;;;;;;7391239;19;20023;-62
2021/10/12 09:20:26;;;;;;;6.63;3.30;;;;;;;;;;7391713;19;20019;-60
2021/10/12 09:23:04;;;;;;;6.32;3.58;;;;;;;;;;7390184;19;20018;-60
2021/10/12 09:25:41;;;;;;;5.95;3.15;;;;;;;;;;7390937;19;20018;-61
2021/10/12 09:28:25;;;;;;;7.32;3.10;;;;;;;;;;7393198;19;20006;-61
2021/10/12 09:30:57;;;;;;;7.80;3.22;;;;;;;;;;7390527;19;20014;-60
2021/10/12 09:33:24;;;;;;;5.53;3.00;;;;;;;;;;7389962;19;20383;-61
2021/10/12 09:35:52;;;;;;;4.80;2.67;;;;;;;;;;7389286;19;20122;-61
2021/10/12 09:38:20;;;;;;;5.53;3.22;;;;;;;;;;7390269;19;20476;-60
2021/10/12 09:40:47;;;;;;;4.65;2.92;;;;;;;;;;7389764;19;20014;-57
2021/10/12 09:43:17;;;;;;;7.15;3.30;;;;;;;;;;7390421;19;20021;-60
2021/10/12 09:45:46;;;;;;;6.28;3.70;;;;;;;;;;7390644;19;20011;-61
2021/10/12 09:48:34;;;;;;;6.65;4.00;;;;;;;;;;7390478;19;20017;-61
2021/10/12 09:51:12;;;;;;;10.90;3.80;;;;;;;;;;7390386;19;20015;-60
2021/10/12 09:53:45;;;;;;;10.63;4.43;;;;;;;;;;7390014;19;20013;-59
2021/10/12 09:56:13;;;;;;;7.72;4.10;;;;;;;;;;7388593;19;20032;-56
2021/10/12 09:58:43;;;;;;;11.88;5.30;;;;;;;;;;7390331;19;20019;-59
2021/10/12 10:01:11;;;;;;;10.98;6.10;;;;;;;;;;7392880;19;20595;-59
2021/10/12 10:03:39;;;;;;;13.60;4.47;;;;;;;;;;7397124;19;20477;-61
2021/10/12 10:06:11;;;;;;;8.13;3.88;;;;;;;;;;7397178;19;20006;-59
2021/10/12 10:08:48;;;;;;;6.68;3.75;;;;;;;;;;7397739;19;20435;-58
2021/10/12 10:11:35;;;;;;;7.32;3.42;;;;;;;;;;7397420;19;20038;-61
2021/10/12 10:14:05;;;;;;;6.68;3.63;;;;;;;;;;7396635;19;20006;-59
2021/10/12 10:16:34;;;;;;;7.18;3.60;;;;;;;;;;7392552;19;20015;-60
2021/10/12 10:19:02;;;;;;;6.00;3.65;;;;;;;;;;7395475;19;20027;-59
2021/10/12 10:21:29;;;;;;;6.68;3.70;;;;;;;;;;7396776;19;20033;-58
2021/10/12 10:26:39;;;;;;;4.15;2.30;;;;;;;;;;7396663;19;20017;-59
2021/10/12 10:29:42;;;;;;;5.57;2.40;;;;;;;;;;7400935;19;20351;-59
2021/10/12 10:32:17;;;;;;;134.15;53.17;;;;;;;;;;7392416;19;20014;-50
2021/10/12 10:34:57;;;;;;;13.38;6.70;;;;;;;;;;7393036;19;20022;-55
2021/10/12 10:37:28;;;;;;;4.05;2.17;;;;;;;;;;7397770;19;20014;-60
2021/10/12 10:40:01;;;;;;;3.58;2.40;;;;;;;;;;7396719;19;20018;-53
2021/10/12 10:42:41;;;;;;;4.28;1.70;;;;;;;;;;7397554;19;20029;-57
2021/10/12 10:45:10;;;;;;;4.15;2.00;;;;;;;;;;7394900;19;20014;-59
2021/10/12 10:47:42;;;;;;;2.90;1.75;;;;;;;;;;7395848;19;20041;-56
2021/10/12 10:50:27;;;;;;;4.03;1.75;;;;;;;;;;7395085;19;20032;-57
2021/10/12 10:53:00;;;;;;;3.90;1.40;;;;;;;;;;7396289;19;20010;-60
2021/10/12 10:55:30;;;;;;;64.82;27.02;;;;;;;;;;7394740;19;20042;-60
2021/10/12 10:58:16;;;;;;;25.50;12.77;;;;;;;;;;7395219;19;20010;-59
2021/10/12 11:00:53;;;;;;;3.85;1.92;;;;;;;;;;7395425;19;20501;-59
2021/10/12 11:03:36;;;;;;;2.83;1.67;;;;;;;;;;7395583;19;20086;-59
2021/10/12 11:06:14;;;;;;;2.55;1.40;;;;;;;;;;7394897;19;20018;-58
2021/10/12 11:08:58;;;;;;;4.43;1.80;;;;;;;;;;7395465;19;20019;-60
2021/10/12 11:11:34;;;;;;;2.13;1.35;;;;;;;;;;7395077;19;20006;-60
2021/10/12 11:14:04;;;;;;;3.08;1.15;;;;;;;;;;7395128;19;20014;-59
2021/10/12 11:16:36;;;;;;;4.05;1.50;;;;;;;;;;7392982;19;20015;-58
2021/10/12 11:19:06;;;;;;;2.55;1.33;;;;;;;;;;7395192;19;20014;-60
2021/10/12 11:21:36;;;;;;;9.60;2.15;;;;;;;;;;7395080;19;20014;-59
2021/10/12 11:24:07;;;;;;;2.50;1.60;;;;;;;;;;7395654;19;20022;-60
2021/10/12 11:26:35;;;;;;;2.58;1.20;;;;;;;;;;7394745;19;20014;-59
2021/10/12 11:29:03;;;;;;;4.00;1.50;;;;;;;;;;7398120;19;20015;-57
2021/10/12 11:31:31;;;;;;;3.92;1.50;;;;;;;;;;7394331;19;20020;-57
2021/10/12 11:34:02;;;;;;;3.58;1.60;;;;;;;;;;7393292;19;20022;-55
2021/10/12 11:36:32;;;;;;;3.05;1.63;;;;;;;;;;7392034;19;20007;-58
2021/10/12 11:39:02;;;;;;;3.35;1.80;;;;;;;;;;7394669;19;20010;-60
2021/10/12 11:41:34;;;;;;;13.73;7.70;;;;;;;;;;7396397;19;20019;-56
2021/10/12 11:44:21;;;;;;;4.43;2.45;;;;;;;;;;7394005;19;20010;-61
2021/10/12 11:46:51;;;;;;;2.67;1.55;;;;;;;;;;7395960;19;20032;-57
2021/10/12 11:49:20;;;;;;;4.60;1.38;;;;;;;;;;7394041;19;20014;-55
2021/10/12 11:51:50;;;;;;;4.05;1.60;;;;;;;;;;7393846;19;20007;-60
2021/10/12 11:54:22;;;;;;;2.40;1.45;;;;;;;;;;7393265;19;20021;-60
2021/10/12 11:56:53;;;;;;;3.80;2.15;;;;;;;;;;7391756;19;20006;-59
2021/10/12 11:59:21;;;;;;;8.75;4.20;;;;;;;;;;7393516;19;20018;-59
2021/10/12 12:01:48;;;;;;;3.88;1.45;;;;;;;;;;7393652;19;20006;-54
2021/10/12 12:04:35;;;;;;;3.33;1.60;;;;;;;;;;7392860;19;20407;-53
2021/10/12 12:07:06;;;;;;;3.15;1.58;;;;;;;;;;7391484;19;20011;-51
2021/10/12 12:09:38;;;;;;;4.05;1.85;;;;;;;;;;7393416;19;20017;-61
2021/10/12 12:12:06;;;;;;;6.72;1.83;;;;;;;;;;7393288;19;20013;-61
2021/10/12 12:14:34;;;;;;;9.10;4.35;;;;;;;;;;7393257;19;20027;-60
2021/10/12 12:17:09;;;;;;;13.60;6.50;;;;;;;;;;7390953;19;20026;-54
2021/10/12 12:19:44;;;;;;;6.28;2.65;;;;;;;;;;7393167;19;20365;-55
2021/10/12 12:22:13;;;;;;;5.30;1.92;;;;;;;;;;7393554;19;20020;-55
2021/10/12 12:24:55;;;;;;;3.38;1.70;;;;;;;;;;7391266;19;20019;-55
2021/10/12 12:27:23;;;;;;;2.80;1.30;;;;;;;;;;7390134;19;20010;-54
2021/10/12 12:30:03;;;;;;;3.20;1.83;;;;;;;;;;7388673;19;20477;-50
2021/10/12 12:32:30;;;;;;;2.38;1.60;;;;;;;;;;7388216;19;20489;-52
2021/10/12 12:35:04;;;;;;;5.03;2.35;;;;;;;;;;7388901;19;20200;-57
2021/10/12 12:37:34;;;;;;;6.13;2.17;;;;;;;;;;7387603;19;20031;-59
2021/10/12 12:40:22;;;;;;;2.15;1.30;;;;;;;;;;7387674;19;20006;-52
2021/10/12 12:42:49;;;;;;;2.88;1.23;;;;;;;;;;7388177;19;20481;-56
2021/10/12 12:45:22;;;;;;;3.00;1.42;;;;;;;;;;7384239;19;20010;-59
2021/10/12 12:47:52;;;;;;;6.05;2.03;;;;;;;;;;7388370;19;20082;-49
2021/10/12 12:50:30;;;;;;;3.58;1.75;;;;;;;;;;7387718;19;20074;-56
2021/10/12 12:53:00;;;;;;;2.03;1.10;;;;;;;;;;7388033;19;20081;-57
2021/10/12 12:55:40;;;;;;;2.65;1.58;;;;;;;;;;7387780;19;20047;-51
2021/10/12 12:58:10;;;;;;;2.22;1.25;;;;;;;;;;7388416;19;20014;-60
2021/10/12 13:00:58;;;;;;;2.60;1.55;;;;;;;;;;7386457;19;20078;-50
2021/10/12 13:03:26;;;;;;;3.03;1.50;;;;;;;;;;7391543;19;20010;-59
2021/10/12 13:05:54;;;;;;;3.60;2.28;;;;;;;;;;7390609;19;20003;-54
2021/10/12 13:08:21;;;;;;;4.05;2.80;;;;;;;;;;7391333;19;20014;-54
2021/10/12 13:10:49;;;;;;;3.35;2.10;;;;;;;;;;7391291;19;20026;-52
2021/10/12 13:13:16;;;;;;;5.07;1.90;;;;;;;;;;7391318;19;20015;-57
2021/10/12 13:15:44;;;;;;;2.67;1.80;;;;;;;;;;7390906;19;20376;-51
2021/10/12 13:18:11;;;;;;;4.50;1.73;;;;;;;;;;7391466;19;20469;-47
2021/10/12 13:20:39;;;;;;;2.85;1.60;;;;;;;;;;7391081;19;20006;-58
2021/10/12 13:23:07;;;;;;;3.58;1.77;;;;;;;;;;7390898;19;20022;-59
2021/10/12 13:25:34;;;;;;;2.83;1.70;;;;;;;;;;7391108;19;20022;-59
2021/10/12 13:28:02;;;;;;;6.43;1.95;;;;;;;;;;7392769;19;20010;-53
2021/10/12 13:30:29;;;;;;;3.63;1.80;;;;;;;;;;7390475;19;20036;-60
2021/10/12 13:32:57;;;;;;;3.22;1.70;;;;;;;;;;7390368;19;20010;-57
2021/10/12 13:35:24;;;;;;;2.88;1.48;;;;;;;;;;7390469;19;20014;-51
2021/10/12 13:37:54;;;;;;;3.47;1.65;;;;;;;;;;7398778;19;20015;-60
2021/10/12 13:40:22;;;;;;;2.30;1.50;;;;;;;;;;7399031;19;20010;-60
2021/10/12 13:42:49;;;;;;;2.95;2.08;;;;;;;;;;7397721;19;20027;-57
2021/10/12 13:45:17;;;;;;;2.80;1.60;;;;;;;;;;7398525;19;20041;-60
2021/10/12 13:47:45;;;;;;;3.20;1.55;;;;;;;;;;7398166;19;20007;-51
2021/10/12 13:50:14;;;;;;;2.70;1.50;;;;;;;;;;7398527;19;20039;-54
2021/10/12 13:52:43;;;;;;;2.63;1.70;;;;;;;;;;7400881;19;20014;-49
2021/10/12 13:55:11;;;;;;;3.67;2.05;;;;;;;;;;7398098;19;20026;-59
2021/10/12 13:57:39;;;;;;;4.30;1.85;;;;;;;;;;7395538;19;20051;-60
2021/10/12 14:00:09;;;;;;;3.70;2.13;;;;;;;;;;7398292;19;20015;-60
2021/10/12 14:02:39;;;;;;;6.30;2.10;;;;;;;;;;7397714;19;20046;-50
2021/10/12 14:05:08;;;;;;;3.53;2.10;;;;;;;;;;7397392;19;20011;-54
2021/10/12 14:07:36;;;;;;;3.95;1.90;;;;;;;;;;7396674;19;20027;-57
2021/10/12 14:10:05;;;;;;;3.83;2.10;;;;;;;;;;7397341;19;20018;-56
2021/10/12 14:12:32;;;;;;;5.40;1.80;;;;;;;;;;7399377;19;20532;-60
2021/10/12 14:15:00;;;;;;;6.45;2.00;;;;;;;;;;7397612;19;20011;-50
2021/10/12 14:17:30;;;;;;;3.97;1.73;;;;;;;;;;7394547;19;20011;-51
2021/10/12 14:20:15;;;;;;;4.72;2.80;;;;;;;;;;7397390;19;20051;-61
2021/10/12 14:22:46;;;;;;;3.95;2.17;;;;;;;;;;7397530;19;20007;-59
2021/10/12 14:25:13;;;;;;;5.90;3.05;;;;;;;;;;7397238;19;20036;-60
2021/10/12 14:27:41;;;;;;;4.03;2.50;;;;;;;;;;7398034;19;20013;-60
2021/10/12 14:30:09;;;;;;;4.47;2.08;;;;;;;;;;7396706;19;20018;-56
2021/10/12 14:32:37;;;;;;;8.90;2.95;;;;;;;;;;7395427;19;20022;-54
2021/10/12 14:35:05;;;;;;;4.05;3.03;;;;;;;;;;7396889;19;20014;-59
2021/10/12 14:37:33;;;;;;;3.38;2.08;;;;;;;;;;7393989;19;20041;-60
2021/10/12 14:40:04;;;;;;;5.00;3.00;;;;;;;;;;7399538;19;20006;-55
2021/10/12 14:42:33;;;;;;;5.53;3.25;;;;;;;;;;7396037;19;20553;-55
2021/10/12 14:45:02;;;;;;;5.50;3.25;;;;;;;;;;7395053;19;20033;-57
2021/10/12 14:47:31;;;;;;;4.82;2.70;;;;;;;;;;7393427;19;20031;-60
2021/10/12 14:49:59;;;;;;;171.00;78.60;;;;;;;;;;7395515;19;20033;-55
2021/10/12 14:52:30;;;;;;;64.18;31.77;;;;;;;;;;7396332;19;20040;-57
2021/10/12 14:54:57;;;;;;;26.88;13.40;;;;;;;;;;7395859;19;20010;-55
2021/10/12 14:57:25;;;;;;;11.13;5.53;;;;;;;;;;7393485;19;20010;-55
2021/10/12 14:59:52;;;;;;;10.48;4.45;;;;;;;;;;7395674;19;20010;-58
2021/10/12 15:02:20;;;;;;;7.05;4.40;;;;;;;;;;7395675;19;20007;-58
2021/10/12 15:04:48;;;;;;;8.23;3.55;;;;;;;;;;7395543;19;20021;-49
2021/10/12 15:07:16;;;;;;;32.90;4.50;;;;;;;;;;7395287;19;20013;-59
2021/10/12 15:09:43;;;;;;;5.40;2.90;;;;;;;;;;7395934;19;20020;-58
2021/10/12 15:12:11;;;;;;;4.20;2.35;;;;;;;;;;7395205;19;20516;-50
2021/10/12 15:14:39;;;;;;;3.65;2.00;;;;;;;;;;7398252;19;20027;-52
2021/10/12 15:17:08;;;;;;;4.68;1.67;;;;;;;;;;7393557;19;20070;-58
2021/10/12 15:19:36;;;;;;;5.55;1.73;;;;;;;;;;7395371;19;20020;-52
2021/10/12 15:22:04;;;;;;;2.85;1.60;;;;;;;;;;7395299;19;20628;-58
2021/10/12 15:24:32;;;;;;;2.63;1.60;;;;;;;;;;7394631;19;20010;-50
2021/10/12 15:26:59;;;;;;;4.13;1.70;;;;;;;;;;7394951;19;20022;-50
2021/10/12 15:29:27;;;;;;;4.32;2.38;;;;;;;;;;7395167;19;20507;-60
2021/10/12 15:31:54;;;;;;;6.78;3.95;;;;;;;;;;7395084;19;20018;-61
2021/10/12 15:34:22;;;;;;;4.80;2.25;;;;;;;;;;7392416;19;20074;-58
2021/10/12 15:36:51;;;;;;;4.38;1.75;;;;;;;;;;7393421;19;20508;-56
2021/10/12 15:39:24;;;;;;;3.30;1.65;;;;;;;;;;7394173;19;20013;-59
2021/10/12 15:42:03;;;;;;;5.00;2.83;;;;;;;;;;7396917;19;20018;-56
2021/10/12 15:44:33;;;;;;;3.17;1.80;;;;;;;;;;7394363;19;20017;-58
2021/10/12 15:47:03;;;;;;;9.23;3.45;;;;;;;;;;7394249;19;20007;-60
2021/10/12 15:49:33;;;;;;;5.00;2.30;;;;;;;;;;7394085;19;20078;-53
2021/10/12 15:52:04;;;;;;;8.98;3.78;;;;;;;;;;7394307;19;20010;-49
2021/10/12 15:54:33;;;;;;;6.35;3.42;;;;;;;;;;7393974;19;20011;-58
2021/10/12 15:57:01;;;;;;;7.03;3.90;;;;;;;;;;7392664;19;20010;-59
2021/10/12 15:59:30;;;;;;;10.25;6.88;;;;;;;;;;7391494;19;20029;-60
2021/10/12 16:01:57;;;;;;;6.55;3.80;;;;;;;;;;7393330;19;20039;-53
2021/10/12 16:04:30;;;;;;;4.60;2.95;;;;;;;;;;7393329;19;20098;-57
2021/10/12 16:06:57;;;;;;;8.77;4.05;;;;;;;;;;7393149;19;20021;-59
2021/10/12 16:09:25;;;;;;;6.97;3.83;;;;;;;;;;7393450;19;20018;-55
2021/10/12 16:11:54;;;;;;;6.40;4.10;;;;;;;;;;7393520;19;20469;-57
2021/10/12 16:14:23;;;;;;;5.18;3.13;;;;;;;;;;7392733;19;20036;-61
2021/10/12 16:21:57;;;;;;;14.30;8.00;;;;;;;;;;7393232;19;20013;-58
2021/10/12 16:24:29;;;;;;;10.05;6.05;;;;;;;;;;7392532;19;20023;-58
2021/10/12 16:26:57;;;;;;;8.23;5.20;;;;;;;;;;7392765;19;20081;-59
2021/10/12 16:29:26;;;;;;;5.85;3.72;;;;;;;;;;7392449;19;20011;-57
2021/10/12 16:31:56;;;;;;;7.22;3.63;;;;;;;;;;7392664;19;20014;-59
2021/10/12 16:34:28;;;;;;;6.20;4.10;;;;;;;;;;7390813;19;20011;-59
2021/10/12 16:37:06;;;;;;;6.20;3.57;;;;;;;;;;7391956;19;20019;-59
2021/10/12 16:39:38;;;;;;;5.50;3.33;;;;;;;;;;7391958;19;20025;-54
2021/10/12 16:42:10;;;;;;;5.07;3.08;;;;;;;;;;7392471;19;20021;-57
2021/10/12 16:44:39;;;;;;;3.53;2.15;;;;;;;;;;7391985;19;20006;-57
2021/10/12 16:47:07;;;;;;;5.18;3.33;;;;;;;;;;7392452;19;20010;-57
2021/10/12 16:49:36;;;;;;;5.63;3.95;;;;;;;;;;7391255;19;20011;-53
2021/10/12 16:52:07;;;;;;;5.35;4.15;;;;;;;;;;7390955;19;20007;-52
2021/10/12 16:54:36;;;;;;;3.33;2.20;;;;;;;;;;7391611;19;20021;-59
2021/10/12 16:57:08;;;;;;;4.90;3.10;;;;;;;;;;7391327;19;20002;-59
2021/10/12 16:59:38;;;;;;;21.30;9.23;;;;;;;;;;7392473;19;20025;-57
2021/10/12 17:02:07;;;;;;;8.60;3.67;;;;;;;;;;7392339;19;20025;-58
2021/10/12 17:04:42;;;;;;;3.08;1.98;;;;;;;;;;7390954;19;20010;-58
2021/10/12 17:07:10;;;;;;;3.63;1.38;;;;;;;;;;7391572;19;20033;-59
2021/10/12 17:09:38;;;;;;;3.78;1.58;;;;;;;;;;7390434;19;20011;-58
2021/10/12 17:12:06;;;;;;;7.50;2.03;;;;;;;;;;7391218;19;20486;-55
2021/10/12 17:14:36;;;;;;;2.70;1.60;;;;;;;;;;7391421;19;20010;-49
2021/10/12 17:17:05;;;;;;;8.93;1.98;;;;;;;;;;7390173;19;20023;-59
2021/10/12 17:19:33;;;;;;;2.92;1.40;;;;;;;;;;7391085;19;20011;-53
2021/10/12 17:22:03;;;;;;;2.15;1.25;;;;;;;;;;7391069;19;20025;-60
2021/10/12 17:24:30;;;;;;;4.60;1.65;;;;;;;;;;7391043;19;20011;-58
2021/10/12 17:27:00;;;;;;;2.53;1.30;;;;;;;;;;7390739;19;20077;-59
2021/10/12 17:29:28;;;;;;;4.68;2.00;;;;;;;;;;7390965;19;20011;-58
2021/10/12 17:31:55;;;;;;;3.63;2.20;;;;;;;;;;7390808;19;20018;-58
2021/10/12 17:34:22;;;;;;;8.38;2.70;;;;;;;;;;7388979;19;20014;-59
2021/10/12 17:36:53;;;;;;;3.53;1.95;;;;;;;;;;7388740;19;20078;-54
2021/10/12 17:39:24;;;;;;;3.38;1.98;;;;;;;;;;7390348;19;20014;-56
2021/10/12 17:41:54;;;;;;;7.47;2.00;;;;;;;;;;7389023;19;20082;-58
2021/10/12 17:44:21;;;;;;;3.58;2.17;;;;;;;;;;7390291;19;20070;-59
2021/10/12 17:46:49;;;;;;;3.10;1.70;;;;;;;;;;7390922;19;20077;-64
2021/10/12 17:49:20;;;;;;;18.05;6.72;;;;;;;;;;7390707;19;20089;-59
2021/10/12 17:51:51;;;;;;;40.00;16.52;;;;;;;;;;7390198;19;20032;-69
2021/10/12 17:54:34;;;;;;;16.67;7.03;;;;;;;;;;7390321;19;20035;-60
2021/10/12 17:57:06;;;;;;;17.65;3.17;;;;;;;;;;7389402;19;20094;-55
2021/10/12 17:59:42;;;;;;;4.20;2.50;;;;;;;;;;7390506;19;20007;-59
2021/10/12 18:02:12;;;;;;;15.98;2.85;;;;;;;;;;7390102;19;20007;-60
2021/10/12 18:04:44;;;;;;;5.53;1.48;;;;;;;;;;7390799;19;20018;-59
2021/10/12 18:07:11;;;;;;;7.07;1.50;;;;;;;;;;7387674;19;20014;-59
2021/10/12 18:09:43;;;;;;;2.35;1.50;;;;;;;;;;7389248;19;20011;-54
2021/10/12 18:12:11;;;;;;;3.13;1.85;;;;;;;;;;7389594;19;20011;-55
2021/10/12 18:14:39;;;;;;;4.03;2.35;;;;;;;;;;7389128;19;20017;-53
2021/10/12 18:17:07;;;;;;;2.67;1.52;;;;;;;;;;7389200;19;20010;-60
2021/10/12 18:19:36;;;;;;;2.75;1.30;;;;;;;;;;7387914;19;20077;-61
2021/10/12 18:22:05;;;;;;;5.30;2.03;;;;;;;;;;7391775;19;20010;-60
2021/10/12 18:24:32;;;;;;;5.90;1.92;;;;;;;;;;7397298;19;20011;-61
2021/10/12 18:27:01;;;;;;;3.78;1.73;;;;;;;;;;7396812;19;20010;-56
2021/10/12 18:29:29;;;;;;;2.58;1.27;;;;;;;;;;7397117;19;20011;-61
2021/10/12 18:31:57;;;;;;;3.17;1.58;;;;;;;;;;7397019;19;20377;-60
2021/10/12 18:34:25;;;;;;;2.40;1.23;;;;;;;;;;7394116;19;20007;-60
2021/10/12 18:36:54;;;;;;;6.45;1.55;;;;;;;;;;7396086;19;20014;-60
2021/10/12 18:39:23;;;;;;;5.13;1.42;;;;;;;;;;7395963;19;20017;-52
2021/10/12 18:41:52;;;;;;;1.20;0.85;;;;;;;;;;7399793;19;20011;-54
2021/10/12 18:44:19;;;;;;;1.50;0.80;;;;;;;;;;7396583;19;20021;-50
2021/10/12 18:47:07;;;;;;;2.30;1.08;;;;;;;;;;7396530;19;20018;-58
2021/10/12 18:49:34;;;;;;;2.75;1.05;;;;;;;;;;7396231;19;20036;-64
2021/10/12 18:52:04;;;;;;;1.75;0.77;;;;;;;;;;7395934;19;20094;-48
2021/10/12 18:54:32;;;;;;;2.70;1.20;;;;;;;;;;7395749;19;20015;-59
2021/10/12 18:57:00;;;;;;;2.10;1.00;;;;;;;;;;7395129;19;20504;-55
2021/10/12 18:59:33;;;;;;;1.80;1.08;;;;;;;;;;7395830;19;20014;-60
2021/10/12 19:02:02;;;;;;;1.33;0.80;;;;;;;;;;7395552;19;20006;-52
2021/10/12 19:04:30;;;;;;;3.65;1.73;;;;;;;;;;7395778;19;20019;-57
2021/10/12 19:06:58;;;;;;;1.88;0.95;;;;;;;;;;7395217;19;20032;-58
2021/10/12 19:09:26;;;;;;;2.95;1.40;;;;;;;;;;7395010;19;20013;-58
2021/10/12 19:11:55;;;;;;;1.42;1.00;;;;;;;;;;7395093;19;20039;-61
2021/10/12 19:14:22;;;;;;;1.55;0.85;;;;;;;;;;7395232;19;20026;-56
2021/10/12 19:16:51;;;;;;;1.73;1.00;;;;;;;;;;7394551;19;20019;-52
2021/10/12 19:19:18;;;;;;;1.15;0.95;;;;;;;;;;7393634;19;20018;-60
2021/10/12 19:21:47;;;;;;;1.65;0.90;;;;;;;;;;7395217;19;20018;-57
2021/10/12 19:24:15;;;;;;;2.17;0.90;;;;;;;;;;7394977;19;20037;-54
2021/10/12 19:26:43;;;;;;;2.50;2.03;;;;;;;;;;7395458;19;20019;-57
2021/10/12 19:29:11;;;;;;;1.90;1.35;;;;;;;;;;7397422;19;20011;-52
2021/10/12 19:31:39;;;;;;;1.70;1.05;;;;;;;;;;7394484;19;20474;-58
2021/10/12 19:34:07;;;;;;;2.60;1.65;;;;;;;;;;7393290;19;20554;-61
2021/10/12 19:36:35;;;;;;;2.13;1.33;;;;;;;;;;7394172;19;20504;-49
2021/10/12 19:39:02;;;;;;;2.00;0.88;;;;;;;;;;7390746;19;20510;-60
2021/10/12 19:41:32;;;;;;;4.45;1.98;;;;;;;;;;7393849;19;20003;-60
2021/10/12 19:44:00;;;;;;;3.83;1.88;;;;;;;;;;7394179;19;20010;-52
2021/10/12 19:46:30;;;;;;;2.85;1.50;;;;;;;;;;7394113;19;20014;-60
2021/10/12 19:48:57;;;;;;;4.13;1.45;;;;;;;;;;7394088;19;20489;-60
2021/10/12 19:51:27;;;;;;;18.10;3.03;;;;;;;;;;7392147;19;20374;-56
2021/10/12 19:53:58;;;;;;;2.95;1.15;;;;;;;;;;7394260;19;20006;-57
2021/10/12 19:56:25;;;;;;;2.53;1.27;;;;;;;;;;7394225;19;20033;-58
2021/10/12 19:58:53;;;;;;;2.75;1.20;;;;;;;;;;7392934;19;20018;-59
2021/10/12 20:01:21;;;;;;;2.03;1.17;;;;;;;;;;7394096;19;20037;-50
2021/10/12 20:03:51;;;;;;;6.13;1.67;;;;;;;;;;7393138;19;20007;-52
2021/10/12 20:06:21;;;;;;;11.02;2.03;;;;;;;;;;7393448;19;20011;-60
2021/10/12 20:08:51;;;;;;;8.05;1.42;;;;;;;;;;7391685;19;20036;-57
2021/10/12 20:11:21;;;;;;;1.42;0.90;;;;;;;;;;7393633;19;20029;-54
2021/10/12 20:13:51;;;;;;;1.42;0.80;;;;;;;;;;7393101;19;20014;-58
2021/10/12 20:16:21;;;;;;;1.35;0.90;;;;;;;;;;7391337;19;20040;-58
2021/10/12 20:21:37;;;;;;;1.17;0.75;;;;;;;;;;7392932;19;20482;-61
2021/10/12 20:24:06;;;;;;;2.08;0.80;;;;;;;;;;7393301;19;20014;-52
2021/10/12 20:26:34;;;;;;;1.40;0.85;;;;;;;;;;7392955;19;20018;-61
2021/10/12 20:29:03;;;;;;;1.30;0.98;;;;;;;;;;7396355;19;20007;-61
2021/10/12 20:31:31;;;;;;;1.80;1.05;;;;;;;;;;7392854;19;20036;-52
2021/10/12 20:33:59;;;;;;;1.60;1.08;;;;;;;;;;7391759;19;20045;-51
2021/10/12 20:36:26;;;;;;;2.65;1.10;;;;;;;;;;7392488;19;20477;-62
2021/10/12 20:38:54;;;;;;;1.33;0.85;;;;;;;;;;7390823;19;20481;-61
2021/10/12 20:41:22;;;;;;;2.42;0.90;;;;;;;;;;7392181;19;20010;-47
2021/10/12 20:43:49;;;;;;;1.60;1.00;;;;;;;;;;7392626;19;20074;-53
2021/10/12 20:46:18;;;;;;;4.75;1.10;;;;;;;;;;7391379;19;20011;-60
2021/10/12 20:48:45;;;;;;;1.30;0.85;;;;;;;;;;7392480;19;20011;-61
2021/10/12 20:51:13;;;;;;;3.55;1.17;;;;;;;;;;7391486;19;20010;-50
2021/10/12 20:53:41;;;;;;;6.20;1.20;;;;;;;;;;7391665;19;20010;-61
2021/10/12 20:56:09;;;;;;;3.20;1.17;;;;;;;;;;7391592;19;20040;-62
2021/10/12 20:58:37;;;;;;;3.80;2.05;;;;;;;;;;7390666;19;20751;-58
2021/10/12 21:01:05;;;;;;;3.08;1.60;;;;;;;;;;7391799;19;20098;-61
2021/10/12 21:03:34;;;;;;;4.22;2.10;;;;;;;;;;7392009;19;20040;-61
2021/10/12 21:06:03;;;;;;;3.60;2.05;;;;;;;;;;7391533;19;20513;-55
2021/10/12 21:08:32;;;;;;;4.00;2.05;;;;;;;;;;7391415;19;20024;-58
2021/10/12 21:10:59;;;;;;;2.47;1.25;;;;;;;;;;7391398;19;20026;-52
2021/10/12 21:13:27;;;;;;;2.65;1.30;;;;;;;;;;7391697;19;20007;-51
2021/10/12 21:15:55;;;;;;;3.88;1.60;;;;;;;;;;7391117;19;20010;-60
2021/10/12 21:18:22;;;;;;;2.85;1.50;;;;;;;;;;7390312;19;20018;-60
2021/10/12 21:20:49;;;;;;;2.72;1.30;;;;;;;;;;7390788;19;20036;-54
2021/10/12 21:23:17;;;;;;;5.35;1.20;;;;;;;;;;7390958;19;20048;-54
2021/10/12 21:25:45;;;;;;;3.45;1.35;;;;;;;;;;7391618;19;20010;-60
2021/10/12 21:28:14;;;;;;;3.72;0.90;;;;;;;;;;7393744;19;20028;-61
2021/10/12 21:30:41;;;;;;;1.98;1.13;;;;;;;;;;7391420;19;20033;-56
2021/10/12 21:33:10;;;;;;;3.45;1.35;;;;;;;;;;7390433;19;20027;-59
2021/10/12 21:35:38;;;;;;;3.53;1.30;;;;;;;;;;7390841;19;20375;-60
2021/10/12 21:38:32;;;;;;;3.13;1.17;;;;;;;;;;7389724;19;20014;-51
2021/10/12 21:41:04;;;;;;;3.25;1.77;;;;;;;;;;7391047;19;20036;-52